KCAE

Columbia Metropolitan Airport

Airport
ICAO code
KCAE
IATA Code
CAE
Summary
ICAO Region
NAM
ICAO Territory
Location

West Columbia, South Carolina

Serving
Columbia
Elevation
236 ft
Coordinates
33° 56' 20" N , 81° 7' 10" W
KCC
Metar
KCAE 221756Z 08008G14KT 10SM SCT050 34/19 A3006 RMK AO2 SLP175 60000 T03440194 10344 20250 58023

Description

Columbia Metropolitan Airport is the main airport serving Columbia, South Carolina, USA. The airport lies 5 nm southwest of Columbia's central business district.

Airport map

Aerial View

Airport accidents

SKYbrary Partners:

Safety knowledge contributed by: